Time;durP1;ratioP1;P1;durP2;ratioP2;P2;SDS_P1;SDS_P2;PMS_P1;PMS_P2;Temp;Humidity;BMP_temperature;BMP_pressure;BME280_temperature;BME280_humidity;BME280_pressure;Samples;Min_cycle;Max_cycle;Signal;HPM_P1;HPM_P2
2022/11/22 00:01:25;;;;;;;0.97;0.63;;;9.30;86.90;;;;;;5043487;28;20472;-52
2022/11/22 00:03:56;;;;;;;0.90;0.80;;;9.30;86.80;;;;;;5057281;28;20468;-50
2022/11/22 00:06:24;;;;;;;1.57;1.23;;;9.30;87.10;;;;;;5029123;28;20478;-51
2022/11/22 00:08:53;;;;;;;0.77;0.60;;;9.30;86.70;;;;;;5034078;28;20451;-50
2022/11/22 00:11:21;;;;;;;3.15;1.23;;;9.30;86.60;;;;;;5040188;28;20997;-49
2022/11/22 00:13:50;;;;;;;1.40;0.97;;;9.30;86.50;;;;;;5046758;28;20228;-51
2022/11/22 00:16:20;;;;;;;1.47;0.83;;;9.40;86.40;;;;;;5038913;28;20541;-51
2022/11/22 00:18:48;;;;;;;1.15;0.65;;;9.30;86.30;;;;;;5048232;28;20793;-49
2022/11/22 00:21:17;;;;;;;1.30;0.63;;;9.40;86.30;;;;;;5053956;28;20273;-51
2022/11/22 00:23:45;;;;;;;2.03;1.00;;;9.40;86.30;;;;;;5065898;28;20481;-50
2022/11/22 00:26:14;;;;;;;1.38;1.08;;;9.40;86.20;;;;;;5060921;28;20474;-51
2022/11/22 00:28:43;;;;;;;1.13;0.70;;;9.40;86.90;;;;;;5054475;28;20572;-51
2022/11/22 00:31:12;;;;;;;1.20;0.70;;;9.40;86.80;;;;;;5023081;28;20565;-50
2022/11/22 00:33:41;;;;;;;1.00;0.83;;;9.40;86.70;;;;;;5029290;28;20450;-52
2022/11/22 00:36:10;;;;;;;5.37;1.00;;;9.40;86.70;;;;;;5044467;28;20478;-50
2022/11/22 00:38:38;;;;;;;1.10;1.00;;;9.30;86.90;;;;;;5048518;28;20435;-52
2022/11/22 00:41:07;;;;;;;1.50;0.80;;;9.30;86.50;;;;;;5047122;28;20466;-52
2022/11/22 00:43:35;;;;;;;1.30;1.07;;;9.30;86.70;;;;;;5047987;28;20475;-52
2022/11/22 00:46:04;;;;;;;1.20;0.70;;;9.30;86.70;;;;;;5047048;28;21041;-50
2022/11/22 00:48:33;;;;;;;1.00;0.70;;;9.30;86.60;;;;;;5048401;28;20474;-51
2022/11/22 00:51:03;;;;;;;1.33;0.93;;;9.30;87.20;;;;;;5048626;28;20469;-50
2022/11/22 00:53:31;;;;;;;0.75;0.55;;;9.40;86.70;;;;;;5047377;28;20451;-51
2022/11/22 00:56:00;;;;;;;1.40;1.00;;;9.30;86.40;;;;;;5030938;28;20221;-49
2022/11/22 00:58:29;;;;;;;2.00;0.83;;;9.30;86.50;;;;;;5028360;28;20444;-51
2022/11/22 01:00:57;;;;;;;1.13;0.97;;;9.30;86.60;;;;;;5034512;28;20459;-49
2022/11/22 01:03:26;;;;;;;2.10;1.27;;;9.30;86.50;;;;;;5031742;28;20507;-51
2022/11/22 01:05:54;;;;;;;8.67;1.70;;;9.40;86.60;;;;;;5042378;28;20691;-50
2022/11/22 01:08:24;;;;;;;1.15;0.75;;;9.30;86.50;;;;;;5028044;28;20436;-49
2022/11/22 01:10:57;;;;;;;2.00;0.73;;;9.30;87.70;;;;;;5060321;28;21170;-50
2022/11/22 01:13:26;;;;;;;1.40;1.20;;;9.30;86.50;;;;;;5031353;28;20464;-50
2022/11/22 01:15:59;;;;;;;1.40;1.00;;;9.30;86.60;;;;;;5037652;28;20274;-50
2022/11/22 01:18:27;;;;;;;3.90;0.80;;;9.40;86.60;;;;;;5024279;28;20428;-49
2022/11/22 01:20:56;;;;;;;3.60;1.10;;;9.30;86.50;;;;;;5034418;28;21186;-51
2022/11/22 01:23:26;;;;;;;1.90;1.10;;;9.30;86.50;;;;;;5031863;28;20464;-50
2022/11/22 01:25:55;;;;;;;2.85;1.17;;;9.30;86.40;;;;;;5054075;28;20486;-51
2022/11/22 01:28:23;;;;;;;4.63;1.20;;;9.30;86.50;;;;;;5034142;28;20254;-49
2022/11/22 01:30:54;;;;;;;2.83;0.90;;;9.30;86.40;;;;;;5027998;28;20244;-52
2022/11/22 01:33:23;;;;;;;1.92;1.30;;;9.30;86.40;;;;;;5035330;28;20465;-50
2022/11/22 01:35:51;;;;;;;1.20;0.70;;;9.30;86.40;;;;;;5035628;28;20396;-50
2022/11/22 01:38:20;;;;;;;1.87;0.93;;;9.30;86.40;;;;;;5031221;28;20486;-51
2022/11/22 01:40:50;;;;;;;1.42;1.00;;;9.30;86.40;;;;;;5043639;28;20519;-51
2022/11/22 01:43:20;;;;;;;2.53;0.93;;;9.30;86.40;;;;;;5047525;28;20434;-51
2022/11/22 01:45:53;;;;;;;3.63;0.73;;;9.30;86.30;;;;;;5056541;28;20220;-50
2022/11/22 01:48:46;;;;;;;2.50;0.80;;;9.30;86.30;;;;;;5053632;28;20230;-49
2022/11/22 01:51:21;;;;;;;1.70;1.17;;;9.30;86.30;;;;;;5054779;28;20554;-51
2022/11/22 01:53:49;;;;;;;2.17;0.70;;;9.30;86.30;;;;;;5052101;28;20451;-50
2022/11/22 01:56:22;;;;;;;2.70;1.00;;;9.30;86.50;;;;;;5047231;28;20497;-50
2022/11/22 01:58:55;;;;;;;3.13;0.80;;;9.30;86.30;;;;;;5045717;28;20197;-51
2022/11/22 02:01:26;;;;;;;1.33;1.23;;;9.30;86.40;;;;;;5018561;28;20538;-50
2022/11/22 02:03:57;;;;;;;2.43;0.70;;;9.30;86.40;;;;;;5011026;28;20301;-51
2022/11/22 02:06:32;;;;;;;2.88;1.00;;;9.30;86.40;;;;;;5026215;28;20480;-52
2022/11/22 02:09:07;;;;;;;2.70;0.90;;;9.30;86.50;;;;;;5026118;28;20668;-50
2022/11/22 02:11:41;;;;;;;1.98;0.80;;;9.30;86.30;;;;;;5018438;28;20265;-50
2022/11/22 02:14:10;;;;;;;3.35;2.75;;;9.30;86.40;;;;;;5029348;28;20319;-51
2022/11/22 02:16:41;;;;;;;3.20;1.20;;;9.30;86.40;;;;;;5017049;28;20225;-51
2022/11/22 02:19:14;;;;;;;1.20;1.00;;;9.30;86.30;;;;;;5027501;28;20197;-50
2022/11/22 02:21:46;;;;;;;2.37;1.20;;;9.30;86.30;;;;;;5026977;28;20559;-51
2022/11/22 02:24:21;;;;;;;1.23;0.77;;;9.30;86.30;;;;;;5026103;28;20515;-49
2022/11/22 02:26:51;;;;;;;1.80;0.70;;;9.30;86.60;;;;;;5010774;28;20439;-52
2022/11/22 02:29:20;;;;;;;1.60;0.90;;;9.30;86.20;;;;;;5026894;28;20506;-51
2022/11/22 02:31:49;;;;;;;1.40;1.00;;;9.30;86.20;;;;;;5025191;28;20293;-50
2022/11/22 02:34:17;;;;;;;3.08;0.50;;;9.30;86.20;;;;;;5026812;28;20492;-50
2022/11/22 02:36:50;;;;;;;2.50;1.02;;;9.30;86.20;;;;;;5019114;28;20247;-51
2022/11/22 02:39:21;;;;;;;1.23;1.10;;;9.30;86.20;;;;;;5020149;28;20198;-48
2022/11/22 02:41:52;;;;;;;2.70;0.90;;;9.30;86.10;;;;;;5043327;28;21517;-49
2022/11/22 02:44:22;;;;;;;2.42;1.13;;;9.30;85.90;;;;;;5032608;28;20461;-49
2022/11/22 02:46:52;;;;;;;2.30;0.93;;;9.30;86.00;;;;;;5025098;28;20304;-50
2022/11/22 02:49:23;;;;;;;1.70;0.80;;;9.30;86.00;;;;;;5026098;28;20200;-49
2022/11/22 02:51:52;;;;;;;4.50;1.10;;;9.30;85.90;;;;;;5040638;28;20436;-51
2022/11/22 02:54:21;;;;;;;2.08;0.65;;;9.30;86.00;;;;;;5031229;28;20490;-52
2022/11/22 02:56:51;;;;;;;5.47;0.95;;;9.30;85.90;;;;;;5029642;28;20247;-52
2022/11/22 02:59:20;;;;;;;2.13;1.00;;;9.30;85.80;;;;;;5035333;28;20726;-51
2022/11/22 03:01:49;;;;;;;1.50;1.02;;;9.30;85.90;;;;;;5026144;28;20490;-51
2022/11/22 03:04:24;;;;;;;2.57;0.77;;;9.30;85.80;;;;;;5026055;28;20300;-50
2022/11/22 03:06:55;;;;;;;2.10;1.05;;;9.30;85.60;;;;;;5023098;28;20439;-50
2022/11/22 03:09:26;;;;;;;1.33;1.03;;;9.30;85.70;;;;;;5029276;28;20747;-51
2022/11/22 03:11:56;;;;;;;2.85;0.80;;;9.30;85.80;;;;;;5021980;28;20459;-50
2022/11/22 03:14:25;;;;;;;2.17;0.80;;;9.30;85.70;;;;;;5031181;28;20692;-50
2022/11/22 03:16:54;;;;;;;1.57;0.60;;;9.30;85.70;;;;;;5018311;28;20544;-49
2022/11/22 03:19:22;;;;;;;2.80;0.90;;;9.30;85.70;;;;;;5029395;28;20458;-50
2022/11/22 03:21:51;;;;;;;1.33;0.82;;;9.30;85.70;;;;;;5046335;28;20621;-50
2022/11/22 03:24:20;;;;;;;2.15;0.90;;;9.30;85.70;;;;;;5018120;28;20344;-50
2022/11/22 03:26:50;;;;;;;0.87;0.57;;;9.30;85.60;;;;;;5027166;28;20200;-50
2022/11/22 03:29:20;;;;;;;1.07;0.60;;;9.30;85.60;;;;;;5027888;28;20838;-49
2022/11/22 03:31:48;;;;;;;2.57;1.10;;;9.30;85.50;;;;;;5043700;28;20519;-48
2022/11/22 03:34:17;;;;;;;0.73;0.60;;;9.30;85.40;;;;;;5053457;28;20495;-49
2022/11/22 03:36:46;;;;;;;1.77;1.07;;;9.30;85.40;;;;;;5027635;28;20526;-50
2022/11/22 03:39:14;;;;;;;2.23;0.90;;;9.30;85.50;;;;;;5027465;28;20444;-51
2022/11/22 03:41:43;;;;;;;2.30;0.97;;;9.30;85.50;;;;;;5040283;28;20568;-50
2022/11/22 03:44:11;;;;;;;1.70;0.80;;;9.30;85.20;;;;;;5028427;28;20460;-51
2022/11/22 03:46:41;;;;;;;2.10;1.10;;;9.30;85.10;;;;;;5044442;28;20256;-50
2022/11/22 03:49:11;;;;;;;2.30;0.90;;;9.30;85.00;;;;;;5046890;28;20428;-50
2022/11/22 03:51:40;;;;;;;2.08;1.05;;;9.30;85.20;;;;;;5033169;28;20459;-49
2022/11/22 03:54:08;;;;;;;1.65;1.15;;;9.30;85.20;;;;;;5027670;28;20213;-49
2022/11/22 03:56:37;;;;;;;2.88;1.20;;;9.30;85.10;;;;;;5042516;28;20639;-51
2022/11/22 03:59:05;;;;;;;2.83;0.70;;;9.30;84.90;;;;;;5051045;28;20235;-51
2022/11/22 04:01:34;;;;;;;1.43;0.77;;;9.20;85.00;;;;;;5028921;28;20479;-51
2022/11/22 04:04:04;;;;;;;4.40;1.03;;;9.30;85.20;;;;;;5024257;28;20455;-51
2022/11/22 04:06:32;;;;;;;1.30;0.87;;;9.30;85.20;;;;;;5028581;28;20483;-52
2022/11/22 04:09:01;;;;;;;3.83;1.50;;;9.30;84.90;;;;;;5021403;28;20962;-51
2022/11/22 04:11:29;;;;;;;1.35;0.85;;;9.30;84.70;;;;;;5062934;28;20467;-50
2022/11/22 04:16:43;;;;;;;2.37;0.63;;;9.30;85.10;;;;;;5034518;28;20803;-49
2022/11/22 04:19:13;;;;;;;1.50;0.73;;;9.20;85.00;;;;;;5045948;28;20509;-50
2022/11/22 04:21:41;;;;;;;0.75;0.60;;;9.30;85.00;;;;;;5031606;28;20459;-50
2022/11/22 04:26:58;;;;;;;1.43;0.90;;;9.30;84.90;;;;;;5036709;28;20276;-51
2022/11/22 04:29:26;;;;;;;1.47;0.70;;;9.30;84.60;;;;;;5029248;28;20996;-51
2022/11/22 04:34:43;;;;;;;1.83;0.90;;;9.30;84.90;;;;;;5029235;28;20220;-50
2022/11/22 04:37:12;;;;;;;2.25;0.85;;;9.20;84.30;;;;;;5035300;28;20217;-49
2022/11/22 04:39:40;;;;;;;2.28;0.85;;;9.20;84.50;;;;;;5045587;28;20201;-51
2022/11/22 04:44:55;;;;;;;0.80;0.77;;;9.20;84.30;;;;;;5042565;28;21036;-50
2022/11/22 04:53:05;;;;;;;1.23;0.70;;;9.20;84.00;;;;;;5050116;28;20220;-51
2022/11/22 04:55:33;;;;;;;2.50;0.83;;;9.20;84.50;;;;;;5046138;28;20213;-50
2022/11/22 04:58:02;;;;;;;1.80;0.80;;;9.20;84.40;;;;;;5041406;28;20439;-50
2022/11/22 05:00:31;;;;;;;1.40;0.73;;;9.20;84.60;;;;;;5065158;28;20474;-51
2022/11/22 05:03:00;;;;;;;3.35;1.30;;;9.20;84.70;;;;;;5055211;28;20211;-51
2022/11/22 05:05:30;;;;;;;0.80;0.50;;;9.20;84.70;;;;;;5030927;28;20490;-50
2022/11/22 05:07:59;;;;;;;1.00;0.80;;;9.30;84.90;;;;;;5048281;28;20204;-50
2022/11/22 05:10:55;;;;;;;0.90;0.90;;;9.20;84.80;;;;;;5045369;28;20200;-49
2022/11/22 05:13:17;;;;;;;2.08;0.90;;;9.20;84.80;;;;;;5079784;28;20315;-51
2022/11/22 05:15:45;;;;;;;1.10;0.50;;;9.20;84.70;;;;;;5052590;28;20220;-49
2022/11/22 05:18:14;;;;;;;1.97;0.83;;;9.20;84.80;;;;;;5045535;28;20458;-51
2022/11/22 05:20:44;;;;;;;1.88;0.68;;;9.20;84.70;;;;;;5045414;28;21027;-50
2022/11/22 05:26:02;;;;;;;2.03;0.88;;;9.20;84.20;;;;;;5071812;28;20224;-51
2022/11/22 05:28:32;;;;;;;1.40;0.70;;;9.20;83.60;;;;;;5065490;28;20282;-51
2022/11/22 05:31:07;;;;;;;1.10;0.80;;;9.20;83.70;;;;;;5045156;28;20225;-50
2022/11/22 05:33:37;;;;;;;1.30;0.68;;;9.20;83.60;;;;;;5055142;28;20462;-51
2022/11/22 05:36:07;;;;;;;1.35;0.70;;;9.20;83.70;;;;;;5047285;28;20224;-51
2022/11/22 05:38:37;;;;;;;2.55;0.93;;;9.20;83.70;;;;;;5055661;28;20202;-49
2022/11/22 05:41:08;;;;;;;2.40;0.80;;;9.20;83.70;;;;;;5045344;28;20258;-51
2022/11/22 05:43:38;;;;;;;1.35;0.60;;;9.20;83.70;;;;;;5047532;28;20556;-50
2022/11/22 05:46:08;;;;;;;2.23;1.30;;;9.20;83.70;;;;;;5045651;28;20360;-50
2022/11/22 05:48:37;;;;;;;1.25;1.15;;;9.20;83.70;;;;;;5061833;28;20439;-49
2022/11/22 05:51:08;;;;;;;1.77;1.23;;;9.10;83.60;;;;;;5046400;28;20742;-51
2022/11/22 05:53:38;;;;;;;2.15;1.33;;;9.10;83.60;;;;;;5047442;28;20216;-50
2022/11/22 05:56:07;;;;;;;3.40;1.13;;;9.10;83.60;;;;;;5041464;28;20220;-51
2022/11/22 05:58:37;;;;;;;1.73;1.00;;;9.10;83.60;;;;;;5030477;28;20386;-51
2022/11/22 06:01:06;;;;;;;3.13;1.17;;;9.10;83.60;;;;;;5045102;28;20486;-51
2022/11/22 06:03:35;;;;;;;2.47;1.05;;;9.10;84.90;;;;;;5063829;28;20718;-49
2022/11/22 06:06:05;;;;;;;2.20;1.00;;;9.10;83.60;;;;;;5046221;28;20238;-52
2022/11/22 06:08:39;;;;;;;1.93;1.20;;;9.10;83.60;;;;;;5050904;28;20435;-52
2022/11/22 06:11:09;;;;;;;3.15;1.08;;;9.10;83.60;;;;;;5050305;28;20470;-51
2022/11/22 06:13:40;;;;;;;2.58;1.00;;;9.10;83.70;;;;;;5063813;28;20225;-50
2022/11/22 06:16:09;;;;;;;1.98;1.00;;;9.10;83.60;;;;;;5043952;28;20682;-51
2022/11/22 06:18:38;;;;;;;1.87;0.70;;;9.10;83.60;;;;;;5046854;28;20257;-52
2022/11/22 06:21:08;;;;;;;1.05;0.80;;;9.10;83.60;;;;;;5048417;28;20482;-50
2022/11/22 06:23:38;;;;;;;1.73;0.60;;;9.10;83.60;;;;;;5047515;28;20245;-48
2022/11/22 06:29:09;;;;;;;3.78;1.08;;;9.20;83.60;;;;;;5011858;23;20504;-67
2022/11/22 06:31:38;;;;;;;4.10;1.10;;;9.20;83.70;;;;;;4874180;29;20226;-67
2022/11/22 06:34:07;;;;;;;1.38;0.82;;;9.10;83.60;;;;;;4875991;29;20879;-68
2022/11/22 06:36:50;;;;;;;2.22;1.02;;;9.10;83.70;;;;;;4888599;29;20227;-69
2022/11/22 06:39:36;;;;;;;2.95;1.10;;;9.10;83.60;;;;;;4888755;29;20210;-70
2022/11/22 06:42:21;;;;;;;2.33;0.85;;;9.10;83.60;;;;;;4875797;29;20206;-70
2022/11/22 06:44:49;;;;;;;2.15;0.80;;;9.10;83.70;;;;;;4873535;29;20351;-69
2022/11/22 06:47:17;;;;;;;1.60;1.08;;;9.10;83.60;;;;;;4868352;29;20226;-68
2022/11/22 06:49:46;;;;;;;2.20;0.85;;;9.10;83.70;;;;;;4876366;29;20269;-70
2022/11/22 06:52:14;;;;;;;1.55;0.75;;;9.10;83.60;;;;;;4873281;29;20215;-68
2022/11/22 06:54:44;;;;;;;1.65;0.90;;;9.10;83.60;;;;;;4892856;29;20214;-69
2022/11/22 06:57:14;;;;;;;5.28;1.38;;;9.10;83.70;;;;;;4874768;29;20231;-69
2022/11/22 06:59:43;;;;;;;2.67;1.08;;;9.10;83.60;;;;;;4875108;29;20230;-69
2022/11/22 07:02:11;;;;;;;4.20;0.98;;;9.10;83.60;;;;;;4874405;29;20574;-69
2022/11/22 07:04:40;;;;;;;1.67;0.80;;;9.10;83.70;;;;;;4896241;29;20199;-69
2022/11/22 07:07:28;;;;;;;3.00;0.87;;;9.10;83.60;;;;;;4872932;29;20234;-68
2022/11/22 07:09:58;;;;;;;1.83;0.98;;;9.10;83.60;;;;;;4867696;29;20510;-68
2022/11/22 07:12:27;;;;;;;1.33;0.60;;;9.10;83.60;;;;;;4874694;29;20297;-69
2022/11/22 07:14:55;;;;;;;1.33;0.70;;;9.10;83.60;;;;;;4872847;29;20282;-69
2022/11/22 07:17:23;;;;;;;2.10;0.83;;;9.10;83.60;;;;;;4889276;29;20538;-69
2022/11/22 07:19:52;;;;;;;2.15;1.35;;;9.10;83.60;;;;;;4874065;29;20508;-69
2022/11/22 07:22:20;;;;;;;2.33;0.88;;;9.10;83.60;;;;;;4873422;29;20205;-68
2022/11/22 07:24:48;;;;;;;1.33;0.80;;;9.10;83.60;;;;;;4888233;29;20226;-69
2022/11/22 07:27:18;;;;;;;2.30;1.23;;;9.10;83.70;;;;;;4873807;29;20237;-68
2022/11/22 07:29:47;;;;;;;1.98;1.10;;;9.10;83.30;;;;;;4869025;29;20274;-69
2022/11/22 07:32:15;;;;;;;1.48;0.70;;;9.10;83.60;;;;;;4874288;29;20210;-68
2022/11/22 07:34:43;;;;;;;3.03;1.00;;;9.10;83.60;;;;;;4874574;29;20237;-69
2022/11/22 07:37:12;;;;;;;4.20;0.80;;;9.10;83.40;;;;;;4868737;29;20206;-68
2022/11/22 07:39:40;;;;;;;2.10;0.93;;;9.10;83.60;;;;;;4889994;29;20451;-67
2022/11/22 07:42:09;;;;;;;2.20;1.10;;;9.10;83.60;;;;;;4874719;29;20827;-70
2022/11/22 07:44:39;;;;;;;3.00;1.52;;;9.00;83.60;;;;;;4881416;29;20298;-67
2022/11/22 07:47:07;;;;;;;1.88;0.73;;;9.10;83.70;;;;;;4873272;29;20305;-69
2022/11/22 07:49:36;;;;;;;3.90;1.25;;;9.10;83.60;;;;;;4872137;29;20218;-68
2022/11/22 07:52:05;;;;;;;3.15;1.23;;;9.10;83.00;;;;;;4889247;29;20678;-69
2022/11/22 07:54:33;;;;;;;2.35;0.90;;;9.00;83.60;;;;;;4872610;29;20207;-69
2022/11/22 07:57:02;;;;;;;2.10;0.90;;;9.00;83.60;;;;;;4881843;29;20229;-73
2022/11/22 07:59:30;;;;;;;1.40;0.90;;;9.00;83.50;;;;;;4873096;29;20463;-69
2022/11/22 08:02:01;;;;;;;1.45;0.70;;;9.00;83.60;;;;;;4875714;29;20474;-72
2022/11/22 08:04:30;;;;;;;2.55;0.70;;;9.10;83.60;;;;;;4873353;29;20230;-72
2022/11/22 08:06:59;;;;;;;4.07;1.50;;;9.00;83.60;;;;;;4878942;29;20227;-73
2022/11/22 08:09:27;;;;;;;1.40;0.70;;;9.00;82.60;;;;;;4880527;29;20210;-73
2022/11/22 08:11:56;;;;;;;3.47;1.17;;;9.00;83.50;;;;;;4875131;29;20671;-72
2022/11/22 08:14:24;;;;;;;1.15;1.00;;;9.00;83.10;;;;;;4867868;29;20230;-74
2022/11/22 08:16:53;;;;;;;2.20;1.10;;;9.00;82.90;;;;;;4889576;29;20222;-72
2022/11/22 08:19:23;;;;;;;3.50;1.40;;;9.00;83.50;;;;;;4877729;29;20454;-72
2022/11/22 08:21:52;;;;;;;1.80;1.03;;;9.00;82.50;;;;;;4867631;29;20589;-75
2022/11/22 08:24:25;;;;;;;2.85;1.00;;;9.00;82.20;;;;;;4879106;29;20459;-74
2022/11/22 08:26:54;;;;;;;2.08;1.45;;;9.00;83.30;;;;;;4872262;29;20270;-74
2022/11/22 08:29:23;;;;;;;2.33;0.80;;;9.00;83.50;;;;;;4872655;29;20202;-75
2022/11/22 08:31:51;;;;;;;3.25;0.68;;;9.00;84.20;;;;;;4874057;29;20552;-72
2022/11/22 08:34:20;;;;;;;6.22;2.22;;;9.00;83.00;;;;;;4873362;29;20775;-72
2022/11/22 08:36:50;;;;;;;1.45;0.82;;;9.00;82.50;;;;;;4872642;29;20318;-74
2022/11/22 08:39:18;;;;;;;3.30;0.98;;;9.00;83.10;;;;;;4868866;29;21551;-74
2022/11/22 08:41:50;;;;;;;3.85;1.20;;;9.00;83.50;;;;;;4874309;29;20354;-72
2022/11/22 08:44:19;;;;;;;2.03;1.00;;;9.00;83.00;;;;;;4874536;29;20290;-74
2022/11/22 08:46:47;;;;;;;2.83;1.05;;;9.00;83.60;;;;;;4868644;29;20493;-73
2022/11/22 08:49:16;;;;;;;2.80;0.88;;;9.00;83.10;;;;;;4867867;29;20210;-74
2022/11/22 08:51:45;;;;;;;2.40;0.90;;;9.00;83.20;;;;;;4872105;29;20705;-73
2022/11/22 08:54:15;;;;;;;1.15;0.93;;;9.00;83.60;;;;;;4874093;29;20890;-74
2022/11/22 08:56:44;;;;;;;1.60;1.20;;;9.00;83.30;;;;;;4871421;29;20230;-72
2022/11/22 08:59:13;;;;;;;3.95;1.95;;;9.00;83.10;;;;;;4868137;29;20796;-73
2022/11/22 09:01:42;;;;;;;4.32;2.53;;;9.00;83.40;;;;;;4872575;29;20485;-72
2022/11/22 09:04:10;;;;;;;5.07;1.75;;;9.00;83.50;;;;;;4893425;29;20202;-74
2022/11/22 09:06:39;;;;;;;5.50;1.20;;;9.00;82.70;;;;;;4868983;29;20230;-73
2022/11/22 09:09:29;;;;;;;3.03;1.30;;;9.00;82.90;;;;;;4875000;29;20198;-73
2022/11/22 09:12:05;;;;;;;1.97;1.17;;;9.00;83.00;;;;;;4872265;29;20443;-73
2022/11/22 09:14:37;;;;;;;2.42;1.15;;;9.00;83.10;;;;;;4872559;29;20647;-73
2022/11/22 09:17:06;;;;;;;3.72;1.40;;;9.00;83.50;;;;;;4874269;29;20249;-71
2022/11/22 09:19:36;;;;;;;2.95;1.33;;;9.00;83.60;;;;;;4872544;29;20202;-74
2022/11/22 09:22:05;;;;;;;4.22;2.00;;;9.00;83.60;;;;;;4879213;29;20206;-74
2022/11/22 09:24:35;;;;;;;3.00;1.60;;;9.00;83.40;;;;;;4876682;29;20203;-73
2022/11/22 09:27:03;;;;;;;4.38;1.52;;;9.00;83.60;;;;;;4871204;29;20329;-73
2022/11/22 09:29:32;;;;;;;4.23;1.50;;;9.00;83.60;;;;;;4870227;29;20462;-68
2022/11/22 09:32:02;;;;;;;2.97;1.33;;;9.00;83.20;;;;;;4874028;29;20498;-70
2022/11/22 09:34:30;;;;;;;2.88;1.15;;;9.00;83.50;;;;;;4880773;29;20234;-67
2022/11/22 09:37:00;;;;;;;2.63;1.08;;;9.00;83.60;;;;;;4882969;29;20223;-69
2022/11/22 09:39:29;;;;;;;2.55;1.33;;;9.00;83.50;;;;;;4882339;29;20229;-68
2022/11/22 09:42:30;;;;;;;1.95;0.82;;;9.00;83.50;;;;;;4866062;29;20211;-69
2022/11/22 09:45:36;;;;;;;5.80;1.80;;;9.00;83.30;;;;;;4881246;29;20277;-70
2022/11/22 09:48:17;;;;;;;2.45;0.95;;;9.00;83.50;;;;;;4866725;29;20214;-70
2022/11/22 09:50:55;;;;;;;4.60;1.30;;;9.00;83.00;;;;;;4871588;29;20564;-68
2022/11/22 09:53:30;;;;;;;2.15;1.23;;;9.00;83.10;;;;;;4884075;29;20195;-69
2022/11/22 09:56:03;;;;;;;1.15;0.63;;;9.00;83.20;;;;;;4865081;29;20226;-69
2022/11/22 09:58:38;;;;;;;2.13;0.90;;;9.00;83.00;;;;;;4870319;29;20194;-67
2022/11/22 10:01:11;;;;;;;1.37;0.87;;;9.00;83.10;;;;;;4878522;29;20301;-69
2022/11/22 10:03:45;;;;;;;3.55;1.40;;;9.00;83.10;;;;;;4873438;29;20730;-68
2022/11/22 10:06:21;;;;;;;2.60;1.17;;;9.00;82.80;;;;;;4873779;29;20662;-67
2022/11/22 10:09:00;;;;;;;1.63;0.93;;;9.00;82.90;;;;;;4870136;29;20578;-67
2022/11/22 10:11:35;;;;;;;2.38;1.30;;;9.00;82.80;;;;;;4873564;29;20305;-67
2022/11/22 10:14:15;;;;;;;1.00;0.73;;;9.00;83.00;;;;;;4871465;29;20314;-68
2022/11/22 10:16:51;;;;;;;1.95;0.95;;;9.00;82.80;;;;;;4871460;29;20315;-68
2022/11/22 10:19:29;;;;;;;2.30;0.80;;;9.00;82.60;;;;;;4872678;29;20642;-67
2022/11/22 10:21:59;;;;;;;1.00;0.63;;;9.00;82.70;;;;;;4865359;29;20477;-67
2022/11/22 10:24:31;;;;;;;1.83;0.90;;;9.00;82.60;;;;;;4868917;29;20213;-68
2022/11/22 10:27:00;;;;;;;2.22;1.00;;;8.90;82.20;;;;;;4879681;29;21018;-68
2022/11/22 10:29:38;;;;;;;1.87;1.40;;;8.90;82.40;;;;;;4869719;29;20233;-70
2022/11/22 10:32:16;;;;;;;0.90;0.75;;;9.00;82.20;;;;;;4865567;29;20456;-69
2022/11/22 10:34:57;;;;;;;1.33;0.80;;;9.00;82.50;;;;;;4870830;29;20205;-68
2022/11/22 10:37:35;;;;;;;2.97;1.38;;;9.00;82.60;;;;;;4867087;29;20455;-69
2022/11/22 10:40:12;;;;;;;1.23;0.77;;;9.00;82.90;;;;;;4864236;29;20226;-69
2022/11/22 10:43:10;;;;;;;1.55;0.60;;;9.00;82.70;;;;;;4883908;29;20199;-67
2022/11/22 10:45:44;;;;;;;1.90;0.80;;;9.00;82.50;;;;;;4856341;29;20732;-69
2022/11/22 10:48:24;;;;;;;2.83;1.10;;;9.00;82.60;;;;;;4871918;29;20305;-67
2022/11/22 10:51:00;;;;;;;1.00;0.55;;;9.00;82.70;;;;;;4886427;29;20506;-67
2022/11/22 10:53:40;;;;;;;1.00;0.60;;;9.00;82.70;;;;;;4866583;29;20676;-69
2022/11/22 10:56:15;;;;;;;4.72;0.85;;;9.00;82.60;;;;;;4865381;29;20236;-67
2022/11/22 10:59:17;;;;;;;3.85;0.70;;;9.00;82.70;;;;;;4874432;29;20191;-68
2022/11/22 11:01:58;;;;;;;0.87;0.60;;;9.00;82.80;;;;;;4871621;29;20301;-70
2022/11/22 11:04:31;;;;;;;1.05;0.65;;;9.00;83.00;;;;;;4873411;29;20457;-69
2022/11/22 11:07:01;;;;;;;1.35;0.95;;;9.00;82.70;;;;;;4873143;29;20230;-70
2022/11/22 11:09:46;;;;;;;3.22;0.73;;;9.00;82.70;;;;;;4870587;29;20218;-68
2022/11/22 11:12:41;;;;;;;1.98;0.77;;;9.00;83.90;;;;;;4870697;29;20197;-68
2022/11/22 11:15:17;;;;;;;1.05;0.65;;;9.00;82.50;;;;;;4873743;29;20226;-67
2022/11/22 11:17:53;;;;;;;2.58;1.10;;;9.00;82.50;;;;;;4874955;29;20210;-69
2022/11/22 11:20:25;;;;;;;1.45;0.63;;;9.00;82.60;;;;;;4867037;29;21073;-69
2022/11/22 11:22:54;;;;;;;1.00;0.80;;;9.00;82.60;;;;;;4875207;29;20319;-68
2022/11/22 11:25:44;;;;;;;2.35;0.75;;;9.00;82.70;;;;;;4874267;29;20230;-68
2022/11/22 11:28:18;;;;;;;0.80;0.60;;;9.00;82.90;;;;;;4890734;29;20575;-74
2022/11/22 11:30:49;;;;;;;1.55;0.50;;;9.00;82.60;;;;;;4871870;29;20512;-73
2022/11/22 11:33:26;;;;;;;0.77;0.60;;;9.00;82.80;;;;;;4875776;29;20621;-73
2022/11/22 11:36:03;;;;;;;0.80;0.60;;;9.00;82.80;;;;;;4874664;29;20502;-72
2022/11/22 11:38:38;;;;;;;2.03;0.60;;;9.00;82.80;;;;;;4877835;29;20959;-73
2022/11/22 11:41:23;;;;;;;1.40;0.70;;;9.00;82.90;;;;;;4873221;29;20508;-72
2022/11/22 11:43:52;;;;;;;2.45;0.85;;;9.00;82.80;;;;;;4872529;29;20332;-73
2022/11/22 11:46:22;;;;;;;1.60;0.80;;;9.00;83.00;;;;;;4875818;29;20226;-73
2022/11/22 11:48:53;;;;;;;1.55;0.70;;;9.00;82.90;;;;;;4881776;29;20581;-73
2022/11/22 11:51:25;;;;;;;2.10;0.80;;;9.00;83.00;;;;;;4880750;29;20656;-73
2022/11/22 11:53:58;;;;;;;2.43;1.00;;;9.00;83.10;;;;;;4878299;29;20978;-75
2022/11/22 11:56:45;;;;;;;2.08;1.17;;;9.00;83.10;;;;;;4876567;29;20475;-73
2022/11/22 11:59:16;;;;;;;2.55;1.23;;;9.00;83.10;;;;;;4872995;29;20735;-73
2022/11/22 12:01:55;;;;;;;2.20;1.15;;;9.00;83.00;;;;;;4873805;29;20246;-73
2022/11/22 12:04:29;;;;;;;1.20;1.10;;;9.00;83.00;;;;;;4877739;29;20199;-73
2022/11/22 12:07:03;;;;;;;1.25;1.00;;;9.00;83.10;;;;;;4869275;29;20790;-73
2022/11/22 12:09:35;;;;;;;1.10;0.90;;;9.00;83.20;;;;;;4864934;29;20217;-74
2022/11/22 12:12:31;;;;;;;0.70;0.50;;;9.00;83.10;;;;;;4874949;29;20576;-74
2022/11/22 12:15:09;;;;;;;1.65;0.80;;;9.00;83.10;;;;;;4872694;29;20538;-69
2022/11/22 12:17:50;;;;;;;1.43;1.03;;;9.00;83.30;;;;;;4868121;29;20294;-69
2022/11/22 12:20:25;;;;;;;1.17;0.73;;;9.00;83.30;;;;;;4871678;29;20467;-69
2022/11/22 12:23:11;;;;;;;1.27;1.17;;;9.00;83.40;;;;;;4875192;29;20682;-69
2022/11/22 12:25:41;;;;;;;1.63;0.90;;;9.00;83.30;;;;;;4873872;29;20226;-69
2022/11/22 12:28:18;;;;;;;1.17;0.90;;;9.00;83.20;;;;;;4873521;29;20989;-69
2022/11/22 12:30:52;;;;;;;1.05;0.98;;;9.00;83.30;;;;;;4886336;29;20277;-70
2022/11/22 12:33:27;;;;;;;1.50;1.10;;;9.00;83.40;;;;;;4874356;29;20209;-68
2022/11/22 12:35:57;;;;;;;1.10;0.98;;;9.00;83.50;;;;;;4865178;29;20714;-68
2022/11/22 12:38:31;;;;;;;1.47;0.80;;;9.00;83.50;;;;;;4873052;29;20592;-68
2022/11/22 12:41:03;;;;;;;2.47;1.10;;;9.00;83.40;;;;;;4872964;29;20507;-69
2022/11/22 12:43:38;;;;;;;1.00;0.83;;;9.00;83.40;;;;;;4874292;29;20983;-69
2022/11/22 12:46:12;;;;;;;1.50;1.40;;;9.00;83.20;;;;;;4871891;29;20475;-69
2022/11/22 12:48:45;;;;;;;1.30;0.90;;;9.00;83.40;;;;;;4874582;29;20772;-68
2022/11/22 12:51:24;;;;;;;1.50;1.10;;;9.00;83.40;;;;;;4881239;29;20245;-70
2022/11/22 12:53:57;;;;;;;0.90;0.80;;;9.00;83.50;;;;;;4873697;29;20461;-68
2022/11/22 12:56:29;;;;;;;0.90;0.67;;;9.00;83.40;;;;;;4866051;29;20506;-67
2022/11/22 12:59:05;;;;;;;0.85;0.63;;;9.00;83.50;;;;;;4865839;29;20463;-72
2022/11/22 13:01:43;;;;;;;1.00;0.70;;;9.00;83.40;;;;;;4873577;29;20623;-72
2022/11/22 13:04:19;;;;;;;1.25;0.93;;;9.00;83.60;;;;;;4876931;29;20447;-73
2022/11/22 13:06:54;;;;;;;1.63;0.98;;;9.00;83.50;;;;;;4880317;29;20230;-72
2022/11/22 13:09:32;;;;;;;1.50;0.98;;;9.00;83.50;;;;;;4870543;29;20225;-69
2022/11/22 13:12:05;;;;;;;1.33;1.13;;;9.00;83.40;;;;;;4882121;29;20304;-66
2022/11/22 13:14:38;;;;;;;1.70;1.13;;;9.00;83.50;;;;;;4872444;29;20502;-68
2022/11/22 13:17:08;;;;;;;2.10;1.03;;;9.00;83.50;;;;;;4880061;29;20297;-68
2022/11/22 13:19:42;;;;;;;2.13;1.50;;;9.00;83.50;;;;;;4874616;29;20523;-69
2022/11/22 13:22:27;;;;;;;2.00;1.17;;;9.00;83.40;;;;;;4876037;29;20234;-67
2022/11/22 13:25:11;;;;;;;1.40;1.10;;;9.00;83.50;;;;;;4874226;29;20206;-68
2022/11/22 13:27:43;;;;;;;1.10;0.75;;;9.00;83.50;;;;;;4872985;29;20820;-68
2022/11/22 13:30:19;;;;;;;0.93;0.88;;;9.00;83.60;;;;;;4870147;29;20234;-69
2022/11/22 13:32:50;;;;;;;1.87;1.00;;;9.00;83.60;;;;;;4865851;29;20671;-69
2022/11/22 13:35:29;;;;;;;1.20;0.90;;;9.00;83.60;;;;;;4877904;29;20479;-68
2022/11/22 13:38:02;;;;;;;1.13;0.82;;;9.00;83.60;;;;;;4871749;29;20459;-70
2022/11/22 13:40:33;;;;;;;1.20;0.80;;;9.00;83.50;;;;;;4873510;29;20207;-73
2022/11/22 13:43:48;;;;;;;1.40;0.95;;;9.00;83.60;;;;;;4866869;29;20647;-70
2022/11/22 13:46:54;;;;;;;1.20;0.70;;;9.00;83.50;;;;;;4874719;29;20267;-69